Station History

Weather Underground - logo

Station Historical Data
Daily Summary for January 5, 2018 Units:  Both    English   Metric
« Previous Day
Next Day »
Daily Weekly Monthly Yearly Custom
  High: Low: Average:
Temperature: 72.3 °F /  22.4 °C 49.7 °F /  9.8 °C 60.2 °F /  15.7 °C
Dew Point: 58.5 °F /  14.7 °C 48.3 °F /  9.1 °C 54.1 °F /  12.3 °C
Humidity: 97 % 59 % 82 %
Wind Speed: 4.0 mph /  6.4 km/h - 0.5 mph /  0.8 km/h
Wind Gust: 4.0 mph /  6.4 km/h - -
Wind:- - West
Pressure: 30.24 in /  1023.9 hPa 30.14 in /  1020.5 hPa -
Precipitation: 0.00 in /  0 mm    
Historical Graphs
 
 
Tabular Data for January 5, 2018
Time Temperature Dew Point Pressure Wind Wind Speed Wind Gust Humidity Rainfall Rate (Hourly)
00:02 54.9 °F /  12.7 °C 52.9 °F /  11.6 °C 30.18 in /  1021.9 hPa Calm     93 % 0.00 in /  0 mm
00:07 54.6 °F /  12.6 °C 52.6 °F /  11.4 °C 30.18 in /  1021.9 hPa Calm     93 % 0.00 in /  0 mm
00:08 54.6 °F /  12.6 °C 52.6 °F /  11.4 °C 30.18 in /  1021.9 hPa Calm     93 % 0.00 in /  0 mm
00:13 54.2 °F /  12.3 °C 52.2 °F /  11.2 °C 30.18 in /  1021.9 hPa Calm     93 % 0.00 in /  0 mm
00:18 54.0 °F /  12.2 °C 52.3 °F /  11.3 °C 30.17 in /  1021.6 hPa Calm     94 % 0.00 in /  0 mm
00:20 53.9 °F /  12.2 °C 52.2 °F /  11.2 °C 30.17 in /  1021.6 hPa Calm     94 % 0.00 in /  0 mm
00:25 53.7 °F /  12.1 °C 52.0 °F /  11.1 °C 30.17 in /  1021.6 hPa Calm     94 % 0.00 in /  0 mm
00:27 53.5 °F /  11.9 °C 51.8 °F /  11 °C 30.17 in /  1021.6 hPa Calm     94 % 0.00 in /  0 mm
00:32 53.2 °F /  11.8 °C 51.5 °F /  10.8 °C 30.17 in /  1021.6 hPa Calm     94 % 0.00 in /  0 mm
00:33 53.2 °F /  11.8 °C 51.5 °F /  10.8 °C 30.17 in /  1021.6 hPa Calm     94 % 0.00 in /  0 mm
00:38 52.9 °F /  11.6 °C 51.2 °F /  10.7 °C 30.17 in /  1021.6 hPa Calm     94 % 0.00 in /  0 mm
00:40 52.8 °F /  11.6 °C 51.1 °F /  10.6 °C 30.17 in /  1021.6 hPa Calm     94 % 0.00 in /  0 mm
00:42 52.7 °F /  11.5 °C 51.0 °F /  10.6 °C 30.17 in /  1021.6 hPa Calm     94 % 0.00 in /  0 mm
00:47 52.5 °F /  11.4 °C 50.8 °F /  10.4 °C 30.16 in /  1021.2 hPa Calm     94 % 0.00 in /  0 mm
00:52 52.0 °F /  11.1 °C 50.3 °F /  10.2 °C 30.17 in /  1021.6 hPa Calm     94 % 0.00 in /  0 mm
00:54 51.9 °F /  11.1 °C 50.2 °F /  10.1 °C 30.16 in /  1021.2 hPa Calm     94 % 0.00 in /  0 mm
00:59 51.8 °F /  11 °C 50.4 °F /  10.2 °C 30.16 in /  1021.2 hPa Calm     95 % 0.00 in /  0 mm
01:00 51.7 °F /  10.9 °C 50.3 °F /  10.2 °C 30.16 in /  1021.2 hPa Calm     95 % 0.00 in /  0 mm
01:05 51.6 °F /  10.9 °C 50.2 °F /  10.1 °C 30.16 in /  1021.2 hPa Calm     95 % 0.00 in /  0 mm
01:08 51.5 °F /  10.8 °C 50.1 °F /  10.1 °C 30.16 in /  1021.2 hPa Calm     95 % 0.00 in /  0 mm
01:13 51.3 °F /  10.7 °C 49.9 °F /  9.9 °C 30.16 in /  1021.2 hPa Calm     95 % 0.00 in /  0 mm
01:14 51.2 °F /  10.7 °C 49.8 °F /  9.9 °C 30.16 in /  1021.2 hPa Calm     95 % 0.00 in /  0 mm
01:19 51.2 °F /  10.7 °C 49.8 °F /  9.9 °C 30.16 in /  1021.2 hPa Calm     95 % 0.00 in /  0 mm
01:22 51.2 °F /  10.7 °C 49.8 °F /  9.9 °C 30.16 in /  1021.2 hPa Calm     95 % 0.00 in /  0 mm
01:27 50.9 °F /  10.5 °C 49.5 °F /  9.7 °C 30.16 in /  1021.2 hPa Calm     95 % 0.00 in /  0 mm
01:30 51.0 °F /  10.6 °C 49.6 °F /  9.8 °C 30.16 in /  1021.2 hPa Calm     95 % 0.00 in /  0 mm
01:35 51.2 °F /  10.7 °C 50.1 °F /  10.1 °C 30.16 in /  1021.2 hPa Calm     96 % 0.00 in /  0 mm
01:41 51.2 °F /  10.7 °C 50.1 °F /  10.1 °C 30.16 in /  1021.2 hPa Calm     96 % 0.00 in /  0 mm
01:42 51.2 °F /  10.7 °C 50.1 °F /  10.1 °C 30.16 in /  1021.2 hPa Calm     96 % 0.00 in /  0 mm
01:47 51.2 °F /  10.7 °C 50.1 °F /  10.1 °C 30.16 in /  1021.2 hPa Calm     96 % 0.00 in /  0 mm
01:50 51.2 °F /  10.7 °C 50.1 °F /  10.1 °C 30.16 in /  1021.2 hPa Calm     96 % 0.00 in /  0 mm
01:56 51.3 °F /  10.7 °C 50.2 °F /  10.1 °C 30.16 in /  1021.2 hPa Calm     96 % 0.00 in /  0 mm
01:57 51.3 °F /  10.7 °C 50.2 °F /  10.1 °C 30.16 in /  1021.2 hPa Calm     96 % 0.00 in /  0 mm
02:02 51.3 °F /  10.7 °C 50.2 °F /  10.1 °C 30.16 in /  1021.2 hPa Calm     96 % 0.00 in /  0 mm
02:04 51.2 °F /  10.7 °C 50.1 °F /  10.1 °C 30.16 in /  1021.2 hPa Calm     96 % 0.00 in /  0 mm
02:09 51.4 °F /  10.8 °C 50.3 °F /  10.2 °C 30.16 in /  1021.2 hPa Calm     96 % 0.00 in /  0 mm
02:14 51.6 °F /  10.9 °C 50.5 °F /  10.3 °C 30.16 in /  1021.2 hPa Calm     96 % 0.00 in /  0 mm
02:19 51.7 °F /  10.9 °C 50.6 °F /  10.3 °C 30.17 in /  1021.6 hPa Calm     96 % 0.00 in /  0 mm
02:23 51.7 °F /  10.9 °C 50.6 °F /  10.3 °C 30.16 in /  1021.2 hPa Calm     96 % 0.00 in /  0 mm
02:28 51.4 °F /  10.8 °C 50.3 °F /  10.2 °C 30.16 in /  1021.2 hPa Calm     96 % 0.00 in /  0 mm
02:29 51.3 °F /  10.7 °C 50.2 °F /  10.1 °C 30.16 in /  1021.2 hPa Calm     96 % 0.00 in /  0 mm
02:34 51.2 °F /  10.7 °C 50.1 °F /  10.1 °C 30.17 in /  1021.6 hPa Calm     96 % 0.00 in /  0 mm
02:40 51.0 °F /  10.6 °C 49.9 °F /  9.9 °C 30.17 in /  1021.6 hPa Calm     96 % 0.00 in /  0 mm
02:44 51.0 °F /  10.6 °C 49.9 °F /  9.9 °C 30.17 in /  1021.6 hPa Calm     96 % 0.00 in /  0 mm
02:47 51.2 °F /  10.7 °C 50.1 °F /  10.1 °C 30.17 in /  1021.6 hPa Calm     96 % 0.00 in /  0 mm
02:52 51.4 °F /  10.8 °C 50.3 °F /  10.2 °C 30.17 in /  1021.6 hPa Calm     96 % 0.00 in /  0 mm
02:56 51.6 °F /  10.9 °C 50.5 °F /  10.3 °C 30.17 in /  1021.6 hPa Calm     96 % 0.00 in /  0 mm
03:01 51.8 °F /  11 °C 50.7 °F /  10.4 °C 30.17 in /  1021.6 hPa Calm     96 % 0.00 in /  0 mm
03:04 52.0 °F /  11.1 °C 51.2 °F /  10.7 °C 30.17 in /  1021.6 hPa Calm     97 % 0.00 in /  0 mm
03:09 52.3 °F /  11.3 °C 51.5 °F /  10.8 °C 30.17 in /  1021.6 hPa Calm     97 % 0.00 in /  0 mm
03:10 52.3 °F /  11.3 °C 51.5 °F /  10.8 °C 30.17 in /  1021.6 hPa Calm     97 % 0.00 in /  0 mm
03:15 52.5 °F /  11.4 °C 51.7 °F /  10.9 °C 30.17 in /  1021.6 hPa Calm     97 % 0.00 in /  0 mm
03:18 52.6 °F /  11.4 °C 51.8 °F /  11 °C 30.17 in /  1021.6 hPa Calm     97 % 0.00 in /  0 mm
03:23 52.5 °F /  11.4 °C 51.7 °F /  10.9 °C 30.17 in /  1021.6 hPa Calm     97 % 0.00 in /  0 mm
03:24 52.4 °F /  11.3 °C 51.6 °F /  10.9 °C 30.17 in /  1021.6 hPa Calm     97 % 0.00 in /  0 mm
03:29 52.7 °F /  11.5 °C 51.9 °F /  11.1 °C 30.17 in /  1021.6 hPa Calm     97 % 0.00 in /  0 mm
03:34 52.6 °F /  11.4 °C 51.5 °F /  10.8 °C 30.17 in /  1021.6 hPa Calm     96 % 0.00 in /  0 mm
03:39 52.4 °F /  11.3 °C 51.3 °F /  10.7 °C 30.17 in /  1021.6 hPa Calm     96 % 0.00 in /  0 mm
03:44 52.2 °F /  11.2 °C 51.1 °F /  10.6 °C 30.17 in /  1021.6 hPa Calm     96 % 0.00 in /  0 mm
03:46 52.0 °F /  11.1 °C 50.9 °F /  10.5 °C 30.17 in /  1021.6 hPa Calm     96 % 0.00 in /  0 mm
03:49 52.0 °F /  11.1 °C 50.9 °F /  10.5 °C 30.17 in /  1021.6 hPa Calm     96 % 0.00 in /  0 mm
03:55 51.8 °F /  11 °C 50.7 °F /  10.4 °C 30.17 in /  1021.6 hPa Calm     96 % 0.00 in /  0 mm
03:59 51.7 °F /  10.9 °C 50.6 °F /  10.3 °C 30.17 in /  1021.6 hPa Calm     96 % 0.00 in /  0 mm
04:04 51.7 °F /  10.9 °C 50.6 °F /  10.3 °C 30.17 in /  1021.6 hPa Calm     96 % 0.00 in /  0 mm
04:06 51.7 °F /  10.9 °C 50.6 °F /  10.3 °C 30.17 in /  1021.6 hPa Calm     96 % 0.00 in /  0 mm
04:07 51.8 °F /  11 °C 50.7 °F /  10.4 °C 30.17 in /  1021.6 hPa Calm     96 % 0.00 in /  0 mm
04:12 51.8 °F /  11 °C 50.7 °F /  10.4 °C 30.16 in /  1021.2 hPa Calm     96 % 0.00 in /  0 mm
04:17 51.4 °F /  10.8 °C 50.3 °F /  10.2 °C 30.16 in /  1021.2 hPa Calm     96 % 0.00 in /  0 mm
04:22 51.4 °F /  10.8 °C 50.3 °F /  10.2 °C 30.16 in /  1021.2 hPa Calm     96 % 0.00 in /  0 mm
04:27 51.0 °F /  10.6 °C 49.6 °F /  9.8 °C 30.16 in /  1021.2 hPa Calm     95 % 0.00 in /  0 mm
04:28 51.0 °F /  10.6 °C 49.6 °F /  9.8 °C 30.16 in /  1021.2 hPa Calm     95 % 0.00 in /  0 mm
04:33 50.6 °F /  10.3 °C 49.2 °F /  9.6 °C 30.16 in /  1021.2 hPa Calm     95 % 0.00 in /  0 mm
04:35 50.5 °F /  10.3 °C 49.1 °F /  9.5 °C 30.16 in /  1021.2 hPa Calm     95 % 0.00 in /  0 mm
04:40 50.3 °F /  10.2 °C 48.9 °F /  9.4 °C 30.16 in /  1021.2 hPa Calm     95 % 0.00 in /  0 mm
04:46 50.2 °F /  10.1 °C 48.8 °F /  9.3 °C 30.16 in /  1021.2 hPa Calm     95 % 0.00 in /  0 mm
04:51 50.0 °F /  10 °C 48.6 °F /  9.2 °C 30.16 in /  1021.2 hPa Calm     95 % 0.00 in /  0 mm
04:53 49.9 °F /  9.9 °C 48.5 °F /  9.2 °C 30.16 in /  1021.2 hPa Calm     95 % 0.00 in /  0 mm
04:58 49.7 °F /  9.8 °C 48.3 °F /  9.1 °C 30.16 in /  1021.2 hPa Calm     95 % 0.00 in /  0 mm
04:59 49.7 °F /  9.8 °C 48.3 °F /  9.1 °C 30.16 in /  1021.2 hPa Calm     95 % 0.00 in /  0 mm
05:04 49.7 °F /  9.8 °C 48.6 °F /  9.2 °C 30.16 in /  1021.2 hPa Calm     96 % 0.00 in /  0 mm
05:09 49.7 °F /  9.8 °C 48.6 °F /  9.2 °C 30.16 in /  1021.2 hPa Calm     96 % 0.00 in /  0 mm
05:10 49.7 °F /  9.8 °C 48.6 °F /  9.2 °C 30.16 in /  1021.2 hPa Calm     96 % 0.00 in /  0 mm
05:15 49.9 °F /  9.9 °C 48.8 °F /  9.3 °C 30.17 in /  1021.6 hPa Calm     96 % 0.00 in /  0 mm
05:20 50.3 °F /  10.2 °C 49.2 °F /  9.6 °C 30.17 in /  1021.6 hPa Calm     96 % 0.00 in /  0 mm
05:25 50.5 °F /  10.3 °C 49.4 °F /  9.7 °C 30.17 in /  1021.6 hPa Calm     96 % 0.00 in /  0 mm
05:30 50.7 °F /  10.4 °C 49.6 °F /  9.8 °C 30.17 in /  1021.6 hPa Calm     96 % 0.00 in /  0 mm
05:35 50.9 °F /  10.5 °C 49.8 °F /  9.9 °C 30.17 in /  1021.6 hPa Calm     96 % 0.00 in /  0 mm
05:37 50.9 °F /  10.5 °C 49.8 °F /  9.9 °C 30.17 in /  1021.6 hPa Calm     96 % 0.00 in /  0 mm
05:42 51.0 °F /  10.6 °C 49.9 °F /  9.9 °C 30.18 in /  1021.9 hPa Calm     96 % 0.00 in /  0 mm
05:47 51.1 °F /  10.6 °C 50.0 °F /  10 °C 30.17 in /  1021.6 hPa Calm     96 % 0.00 in /  0 mm
05:52 51.1 °F /  10.6 °C 50.0 °F /  10 °C 30.17 in /  1021.6 hPa Calm     96 % 0.00 in /  0 mm
05:57 51.2 °F /  10.7 °C 50.1 °F /  10.1 °C 30.18 in /  1021.9 hPa Calm     96 % 0.00 in /  0 mm
06:02 51.2 °F /  10.7 °C 50.1 °F /  10.1 °C 30.18 in /  1021.9 hPa Calm     96 % 0.00 in /  0 mm
06:03 51.2 °F /  10.7 °C 50.1 °F /  10.1 °C 30.18 in /  1021.9 hPa Calm     96 % 0.00 in /  0 mm
06:08 51.2 °F /  10.7 °C 50.1 °F /  10.1 °C 30.18 in /  1021.9 hPa Calm     96 % 0.00 in /  0 mm
06:13 51.3 °F /  10.7 °C 50.2 °F /  10.1 °C 30.18 in /  1021.9 hPa Calm     96 % 0.00 in /  0 mm
06:18 51.3 °F /  10.7 °C 50.2 °F /  10.1 °C 30.18 in /  1021.9 hPa Calm     96 % 0.00 in /  0 mm
06:23 51.5 °F /  10.8 °C 50.4 °F /  10.2 °C 30.18 in /  1021.9 hPa Calm     96 % 0.00 in /  0 mm
06:28 51.5 °F /  10.8 °C 50.4 °F /  10.2 °C 30.18 in /  1021.9 hPa Calm     96 % 0.00 in /  0 mm
06:33 51.6 °F /  10.9 °C 50.5 °F /  10.3 °C 30.18 in /  1021.9 hPa Calm     96 % 0.00 in /  0 mm
06:39 51.7 °F /  10.9 °C 50.6 °F /  10.3 °C 30.18 in /  1021.9 hPa Calm     96 % 0.00 in /  0 mm
06:44 51.8 °F /  11 °C 50.7 °F /  10.4 °C 30.18 in /  1021.9 hPa Calm     96 % 0.00 in /  0 mm
06:49 51.8 °F /  11 °C 50.4 °F /  10.2 °C 30.18 in /  1021.9 hPa Calm     95 % 0.00 in /  0 mm
06:52 51.9 °F /  11.1 °C 50.5 °F /  10.3 °C 30.18 in /  1021.9 hPa Calm     95 % 0.00 in /  0 mm
06:58 52.0 °F /  11.1 °C 50.3 °F /  10.2 °C 30.19 in /  1022.2 hPa Calm     94 % 0.00 in /  0 mm
07:01 52.1 °F /  11.2 °C 50.4 °F /  10.2 °C 30.19 in /  1022.2 hPa Calm     94 % 0.00 in /  0 mm
07:06 52.2 °F /  11.2 °C 50.2 °F /  10.1 °C 30.19 in /  1022.2 hPa Calm     93 % 0.00 in /  0 mm
07:08 52.2 °F /  11.2 °C 50.2 °F /  10.1 °C 30.20 in /  1022.6 hPa Calm     93 % 0.00 in /  0 mm
07:13 52.1 °F /  11.2 °C 49.8 °F /  9.9 °C 30.20 in /  1022.6 hPa Calm     92 % 0.00 in /  0 mm
07:18 51.8 °F /  11 °C 49.5 °F /  9.7 °C 30.19 in /  1022.2 hPa Calm     92 % 0.00 in /  0 mm
07:20 51.7 °F /  10.9 °C 49.5 °F /  9.7 °C 30.19 in /  1022.2 hPa Calm     92 % 0.00 in /  0 mm
07:25 51.4 °F /  10.8 °C 49.2 °F /  9.6 °C 30.19 in /  1022.2 hPa Calm     92 % 0.00 in /  0 mm
07:30 51.2 °F /  10.7 °C 49.2 °F /  9.6 °C 30.19 in /  1022.2 hPa Calm     93 % 0.00 in /  0 mm
07:34 51.2 °F /  10.7 °C 49.2 °F /  9.6 °C 30.19 in /  1022.2 hPa Calm     93 % 0.00 in /  0 mm
07:39 51.2 °F /  10.7 °C 49.5 °F /  9.7 °C 30.19 in /  1022.2 hPa Calm     94 % 0.00 in /  0 mm
07:42 51.4 °F /  10.8 °C 49.7 °F /  9.8 °C 30.19 in /  1022.2 hPa Calm     94 % 0.00 in /  0 mm
07:47 51.8 °F /  11 °C 50.4 °F /  10.2 °C 30.20 in /  1022.6 hPa Calm     95 % 0.00 in /  0 mm
07:48 51.8 °F /  11 °C 50.4 °F /  10.2 °C 30.20 in /  1022.6 hPa Calm     95 % 0.00 in /  0 mm
07:51 52.0 °F /  11.1 °C 50.6 °F /  10.3 °C 30.20 in /  1022.6 hPa Calm     95 % 0.00 in /  0 mm
07:55 52.2 °F /  11.2 °C 50.8 °F /  10.4 °C 30.21 in /  1022.9 hPa Calm     95 % 0.00 in /  0 mm
08:00 52.5 °F /  11.4 °C 51.1 °F /  10.6 °C 30.21 in /  1022.9 hPa Calm     95 % 0.00 in /  0 mm
08:02 52.6 °F /  11.4 °C 50.9 °F /  10.5 °C 30.21 in /  1022.9 hPa Calm     94 % 0.00 in /  0 mm
08:07 52.8 °F /  11.6 °C 51.1 °F /  10.6 °C 30.21 in /  1022.9 hPa Calm     94 % 0.00 in /  0 mm
08:13 53.4 °F /  11.9 °C 51.7 °F /  10.9 °C 30.22 in /  1023.2 hPa Calm     94 % 0.00 in /  0 mm
08:18 54.4 °F /  12.4 °C 52.7 °F /  11.5 °C 30.22 in /  1023.2 hPa Calm     94 % 0.00 in /  0 mm
08:21 55.6 °F /  13.1 °C 54.2 °F /  12.3 °C 30.22 in /  1023.2 hPa Calm     95 % 0.00 in /  0 mm
08:27 56.9 °F /  13.8 °C 54.9 °F /  12.7 °C 30.23 in /  1023.6 hPa Calm     93 % 0.00 in /  0 mm
08:30 57.4 °F /  14.1 °C 55.1 °F /  12.8 °C 30.22 in /  1023.2 hPa Calm     92 % 0.00 in /  0 mm
08:35 57.9 °F /  14.4 °C 55.0 °F /  12.8 °C 30.23 in /  1023.6 hPa Calm     90 % 0.00 in /  0 mm
08:40 58.1 °F /  14.5 °C 54.9 °F /  12.7 °C 30.23 in /  1023.6 hPa Calm     89 % 0.00 in /  0 mm
08:43 58.2 °F /  14.6 °C 55.0 °F /  12.8 °C 30.23 in /  1023.6 hPa Calm     89 % 0.00 in /  0 mm
08:44 58.2 °F /  14.6 °C 55.3 °F /  12.9 °C 30.23 in /  1023.6 hPa Calm     90 % 0.00 in /  0 mm
08:49 58.3 °F /  14.6 °C 55.1 °F /  12.8 °C 30.23 in /  1023.6 hPa Calm     89 % 0.00 in /  0 mm
08:54 58.4 °F /  14.7 °C 54.2 °F /  12.3 °C 30.23 in /  1023.6 hPa Calm     86 % 0.00 in /  0 mm
09:02 58.7 °F /  14.8 °C 53.9 °F /  12.2 °C 30.23 in /  1023.6 hPa Calm     84 % 0.00 in /  0 mm
09:07 58.9 °F /  14.9 °C 53.1 °F /  11.7 °C 30.23 in /  1023.6 hPa Calm     81 % 0.00 in /  0 mm
09:10 59.0 °F /  15 °C 52.8 °F /  11.6 °C 30.23 in /  1023.6 hPa Calm     80 % 0.00 in /  0 mm
09:15 59.4 °F /  15.2 °C 52.9 °F /  11.6 °C 30.23 in /  1023.6 hPa Calm     79 % 0.00 in /  0 mm
09:16 59.6 °F /  15.3 °C 53.1 °F /  11.7 °C 30.23 in /  1023.6 hPa Calm     79 % 0.00 in /  0 mm
09:20 60.1 °F /  15.6 °C 53.2 °F /  11.8 °C 30.23 in /  1023.6 hPa SE 1.2 mph /  1.9 km/h   78 % 0.00 in /  0 mm
09:21 60.3 °F /  15.7 °C 53.4 °F /  11.9 °C 30.23 in /  1023.6 hPa Calm     78 % 0.00 in /  0 mm
09:27 60.7 °F /  15.9 °C 53.8 °F /  12.1 °C 30.23 in /  1023.6 hPa Calm     78 % 0.00 in /  0 mm
09:30 60.9 °F /  16.1 °C 54.3 °F /  12.4 °C 30.23 in /  1023.6 hPa ESE 1.2 mph /  1.9 km/h   79 % 0.00 in /  0 mm
09:33 61.2 °F /  16.2 °C 54.3 °F /  12.4 °C 30.23 in /  1023.6 hPa ESE 1.2 mph /  1.9 km/h   78 % 0.00 in /  0 mm
09:38 61.6 °F /  16.4 °C 54.3 °F /  12.4 °C 30.23 in /  1023.6 hPa Calm     77 % 0.00 in /  0 mm
09:43 62.3 °F /  16.8 °C 53.9 °F /  12.2 °C 30.24 in /  1023.9 hPa ESE 1.2 mph /  1.9 km/h   74 % 0.00 in /  0 mm
09:46 62.6 °F /  17 °C 53.4 °F /  11.9 °C 30.24 in /  1023.9 hPa ESE 1.2 mph /  1.9 km/h 1.2 mph /  1.9 km/h 72 % 0.00 in /  0 mm
09:51 63.1 °F /  17.3 °C 53.9 °F /  12.2 °C 30.24 in /  1023.9 hPa SE 1.2 mph /  1.9 km/h 1.2 mph /  1.9 km/h 72 % 0.00 in /  0 mm
09:55 63.5 °F /  17.5 °C 54.3 °F /  12.4 °C 30.24 in /  1023.9 hPa Calm   0.1 mph /  0.2 km/h 72 % 0.00 in /  0 mm
10:01 63.8 °F /  17.7 °C 54.2 °F /  12.3 °C 30.24 in /  1023.9 hPa Calm     71 % 0.00 in /  0 mm
10:02 64.0 °F /  17.8 °C 54.4 °F /  12.4 °C 30.24 in /  1023.9 hPa Calm     71 % 0.00 in /  0 mm
10:08 64.4 °F /  18 °C 54.8 °F /  12.7 °C 30.23 in /  1023.6 hPa Calm     71 % 0.00 in /  0 mm
10:13 64.7 °F /  18.2 °C 54.7 °F /  12.6 °C 30.23 in /  1023.6 hPa Calm     70 % 0.00 in /  0 mm
10:16 64.9 °F /  18.3 °C 54.5 °F /  12.5 °C 30.24 in /  1023.9 hPa Calm     69 % 0.00 in /  0 mm
10:20 65.0 °F /  18.3 °C 54.2 °F /  12.3 °C 30.24 in /  1023.9 hPa Calm     68 % 0.00 in /  0 mm
10:25 65.2 °F /  18.4 °C 54.4 °F /  12.4 °C 30.24 in /  1023.9 hPa Calm     68 % 0.00 in /  0 mm
10:30 65.3 °F /  18.5 °C 54.5 °F /  12.5 °C 30.23 in /  1023.6 hPa SW 1.2 mph /  1.9 km/h 1.2 mph /  1.9 km/h 68 % 0.00 in /  0 mm
10:34 65.6 °F /  18.7 °C 55.2 °F /  12.9 °C 30.23 in /  1023.6 hPa Calm     69 % 0.00 in /  0 mm
10:36 65.7 °F /  18.7 °C 54.8 °F /  12.7 °C 30.23 in /  1023.6 hPa SW 1.2 mph /  1.9 km/h   68 % 0.00 in /  0 mm
10:41 66.1 °F /  18.9 °C 55.6 °F /  13.1 °C 30.23 in /  1023.6 hPa Calm     69 % 0.00 in /  0 mm
10:45 66.5 °F /  19.2 °C 56.0 °F /  13.3 °C 30.23 in /  1023.6 hPa Calm     69 % 0.00 in /  0 mm
10:50 66.9 °F /  19.4 °C 56.4 °F /  13.6 °C 30.23 in /  1023.6 hPa Calm     69 % 0.00 in /  0 mm
10:54 67.3 °F /  19.6 °C 56.8 °F /  13.8 °C 30.23 in /  1023.6 hPa WNW 1.2 mph /  1.9 km/h 1.2 mph /  1.9 km/h 69 % 0.00 in /  0 mm
10:59 67.5 °F /  19.7 °C 56.6 °F /  13.7 °C 30.22 in /  1023.2 hPa NW 1.2 mph /  1.9 km/h 1.2 mph /  1.9 km/h 68 % 0.00 in /  0 mm
11:04 67.8 °F /  19.9 °C 56.4 °F /  13.6 °C 30.22 in /  1023.2 hPa NNW 1.2 mph /  1.9 km/h 1.2 mph /  1.9 km/h 67 % 0.00 in /  0 mm
11:07 67.9 °F /  19.9 °C 57.4 °F /  14.1 °C 30.22 in /  1023.2 hPa Calm     69 % 0.00 in /  0 mm
11:12 68.2 °F /  20.1 °C 57.6 °F /  14.2 °C 30.22 in /  1023.2 hPa WSW 1.2 mph /  1.9 km/h 1.2 mph /  1.9 km/h 69 % 0.00 in /  0 mm
11:14 68.2 °F /  20.1 °C 57.2 °F /  14 °C 30.22 in /  1023.2 hPa WNW 2.3 mph /  3.7 km/h 2.3 mph /  3.7 km/h 68 % 0.00 in /  0 mm
11:18 68.3 °F /  20.2 °C 57.3 °F /  14.1 °C 30.21 in /  1022.9 hPa NW 1.2 mph /  1.9 km/h   68 % 0.00 in /  0 mm
11:19 68.3 °F /  20.2 °C 57.3 °F /  14.1 °C 30.21 in /  1022.9 hPa NW 1.2 mph /  1.9 km/h 1.2 mph /  1.9 km/h 68 % 0.00 in /  0 mm
11:24 68.9 °F /  20.5 °C 57.9 °F /  14.4 °C 30.21 in /  1022.9 hPa South 1.2 mph /  1.9 km/h 1.2 mph /  1.9 km/h 68 % 0.00 in /  0 mm
11:30 69.4 °F /  20.8 °C 58.0 °F /  14.4 °C 30.21 in /  1022.9 hPa NW 2.3 mph /  3.7 km/h 2.3 mph /  3.7 km/h 67 % 0.00 in /  0 mm
11:33 69.2 °F /  20.7 °C 58.2 °F /  14.6 °C 30.21 in /  1022.9 hPa NNE 2.3 mph /  3.7 km/h 2.3 mph /  3.7 km/h 68 % 0.00 in /  0 mm
11:39 69.5 °F /  20.8 °C 58.5 °F /  14.7 °C 30.20 in /  1022.6 hPa Calm     68 % 0.00 in /  0 mm
11:44 69.6 °F /  20.9 °C 58.2 °F /  14.6 °C 30.20 in /  1022.6 hPa East 2.0 mph /  3.2 km/h 2.0 mph /  3.2 km/h 67 % 0.00 in /  0 mm
11:46 69.7 °F /  20.9 °C 58.3 °F /  14.6 °C 30.20 in /  1022.6 hPa West 1.2 mph /  1.9 km/h 1.2 mph /  1.9 km/h 67 % 0.00 in /  0 mm
11:51 69.8 °F /  21 °C 57.9 °F /  14.4 °C 30.20 in /  1022.6 hPa NW 2.3 mph /  3.7 km/h 2.3 mph /  3.7 km/h 66 % 0.00 in /  0 mm
11:55 69.9 °F /  21.1 °C 57.6 °F /  14.2 °C 30.20 in /  1022.6 hPa NW 2.3 mph /  3.7 km/h 2.3 mph /  3.7 km/h 65 % 0.00 in /  0 mm
12:00 70.1 °F /  21.2 °C 58.2 °F /  14.6 °C 30.20 in /  1022.6 hPa NW 2.3 mph /  3.7 km/h 2.3 mph /  3.7 km/h 66 % 0.00 in /  0 mm
12:05 70.2 °F /  21.2 °C 57.4 °F /  14.1 °C 30.20 in /  1022.6 hPa WNW 3.0 mph /  4.8 km/h 3.0 mph /  4.8 km/h 64 % 0.00 in /  0 mm
12:10 70.3 °F /  21.3 °C 58.0 °F /  14.4 °C 30.20 in /  1022.6 hPa NW 3.5 mph /  5.6 km/h 3.5 mph /  5.6 km/h 65 % 0.00 in /  0 mm
12:13 70.4 °F /  21.3 °C 57.6 °F /  14.2 °C 30.19 in /  1022.2 hPa WNW 3.5 mph /  5.6 km/h 3.5 mph /  5.6 km/h 64 % 0.00 in /  0 mm
12:18 70.4 °F /  21.3 °C 57.6 °F /  14.2 °C 30.19 in /  1022.2 hPa NW 1.2 mph /  1.9 km/h 1.2 mph /  1.9 km/h 64 % 0.00 in /  0 mm
12:23 70.5 °F /  21.4 °C 58.2 °F /  14.6 °C 30.19 in /  1022.2 hPa NW 1.2 mph /  1.9 km/h 1.2 mph /  1.9 km/h 65 % 0.00 in /  0 mm
12:24 70.5 °F /  21.4 °C 58.2 °F /  14.6 °C 30.19 in /  1022.2 hPa NW 2.0 mph /  3.2 km/h 2.0 mph /  3.2 km/h 65 % 0.00 in /  0 mm
12:29 70.9 °F /  21.6 °C 57.7 °F /  14.3 °C 30.19 in /  1022.2 hPa NW 2.3 mph /  3.7 km/h 2.3 mph /  3.7 km/h 63 % 0.00 in /  0 mm
12:30 70.9 °F /  21.6 °C 57.7 °F /  14.3 °C 30.19 in /  1022.2 hPa NW 3.0 mph /  4.8 km/h 3.0 mph /  4.8 km/h 63 % 0.00 in /  0 mm
12:35 70.9 °F /  21.6 °C 57.7 °F /  14.3 °C 30.18 in /  1021.9 hPa WNW 1.2 mph /  1.9 km/h 1.2 mph /  1.9 km/h 63 % 0.00 in /  0 mm
12:40 70.9 °F /  21.6 °C 57.2 °F /  14 °C 30.18 in /  1021.9 hPa NW 3.5 mph /  5.6 km/h 3.5 mph /  5.6 km/h 62 % 0.00 in /  0 mm
12:45 70.9 °F /  21.6 °C 57.2 °F /  14 °C 30.18 in /  1021.9 hPa NW 3.5 mph /  5.6 km/h 3.5 mph /  5.6 km/h 62 % 0.00 in /  0 mm
12:50 70.9 °F /  21.6 °C 57.2 °F /  14 °C 30.18 in /  1021.9 hPa WNW 2.3 mph /  3.7 km/h 2.3 mph /  3.7 km/h 62 % 0.00 in /  0 mm
12:55 71.0 °F /  21.7 °C 57.8 °F /  14.3 °C 30.18 in /  1021.9 hPa North 1.0 mph /  1.6 km/h 1.0 mph /  1.6 km/h 63 % 0.00 in /  0 mm
12:59 71.2 °F /  21.8 °C 57.5 °F /  14.2 °C 30.18 in /  1021.9 hPa NNW 3.5 mph /  5.6 km/h 3.5 mph /  5.6 km/h 62 % 0.00 in /  0 mm
13:00 71.3 °F /  21.8 °C 57.6 °F /  14.2 °C 30.18 in /  1021.9 hPa WNW 2.3 mph /  3.7 km/h 2.3 mph /  3.7 km/h 62 % 0.00 in /  0 mm
13:05 71.3 °F /  21.8 °C 57.2 °F /  14 °C 30.17 in /  1021.6 hPa North 1.0 mph /  1.6 km/h 1.0 mph /  1.6 km/h 61 % 0.00 in /  0 mm
13:07 71.4 °F /  21.9 °C 57.2 °F /  14 °C 30.18 in /  1021.9 hPa NNW 3.5 mph /  5.6 km/h 3.5 mph /  5.6 km/h 61 % 0.00 in /  0 mm
13:11 71.5 °F /  21.9 °C 57.3 °F /  14.1 °C 30.17 in /  1021.6 hPa NNW 2.3 mph /  3.7 km/h 2.3 mph /  3.7 km/h 61 % 0.00 in /  0 mm
13:16 71.7 °F /  22.1 °C 57.1 °F /  13.9 °C 30.17 in /  1021.6 hPa SW 1.2 mph /  1.9 km/h   60 % 0.00 in /  0 mm
13:18 71.8 °F /  22.1 °C 57.6 °F /  14.2 °C 30.17 in /  1021.6 hPa Calm     61 % 0.00 in /  0 mm
13:23 72.2 °F /  22.3 °C 58.0 °F /  14.4 °C 30.17 in /  1021.6 hPa South 2.3 mph /  3.7 km/h 2.3 mph /  3.7 km/h 61 % 0.00 in /  0 mm
13:25 72.3 °F /  22.4 °C 57.6 °F /  14.2 °C 30.17 in /  1021.6 hPa WSW 3.5 mph /  5.6 km/h 3.5 mph /  5.6 km/h 60 % 0.00 in /  0 mm
13:30 72.1 °F /  22.3 °C 57.0 °F /  13.9 °C 30.16 in /  1021.2 hPa West 3.5 mph /  5.6 km/h 3.5 mph /  5.6 km/h 59 % 0.00 in /  0 mm
13:35 71.9 °F /  22.2 °C 57.3 °F /  14.1 °C 30.16 in /  1021.2 hPa Calm     60 % 0.00 in /  0 mm
13:36 71.9 °F /  22.2 °C 57.3 °F /  14.1 °C 30.16 in /  1021.2 hPa WNW 2.0 mph /  3.2 km/h 2.0 mph /  3.2 km/h 60 % 0.00 in /  0 mm
13:40 71.9 °F /  22.2 °C 57.3 °F /  14.1 °C 30.16 in /  1021.2 hPa NW 2.3 mph /  3.7 km/h 2.3 mph /  3.7 km/h 60 % 0.00 in /  0 mm
13:41 71.9 °F /  22.2 °C 57.7 °F /  14.3 °C 30.16 in /  1021.2 hPa WNW 3.5 mph /  5.6 km/h 3.5 mph /  5.6 km/h 61 % 0.00 in /  0 mm
13:46 71.8 °F /  22.1 °C 57.2 °F /  14 °C 30.16 in /  1021.2 hPa NW 2.3 mph /  3.7 km/h 2.3 mph /  3.7 km/h 60 % 0.00 in /  0 mm
13:48 71.7 °F /  22.1 °C 57.5 °F /  14.2 °C 30.16 in /  1021.2 hPa WNW 1.2 mph /  1.9 km/h 1.2 mph /  1.9 km/h 61 % 0.00 in /  0 mm
13:53 71.8 °F /  22.1 °C 57.6 °F /  14.2 °C 30.16 in /  1021.2 hPa Calm     61 % 0.00 in /  0 mm
13:54 71.8 °F /  22.1 °C 57.6 °F /  14.2 °C 30.16 in /  1021.2 hPa NW 2.3 mph /  3.7 km/h 2.3 mph /  3.7 km/h 61 % 0.00 in /  0 mm
13:59 72.0 °F /  22.2 °C 57.4 °F /  14.1 °C 30.15 in /  1020.9 hPa WNW 3.5 mph /  5.6 km/h 3.5 mph /  5.6 km/h 60 % 0.00 in /  0 mm
14:04 72.0 °F /  22.2 °C 57.8 °F /  14.3 °C 30.15 in /  1020.9 hPa NW 2.3 mph /  3.7 km/h 2.3 mph /  3.7 km/h 61 % 0.00 in /  0 mm
14:06 72.0 °F /  22.2 °C 57.4 °F /  14.1 °C 30.15 in /  1020.9 hPa WNW 3.5 mph /  5.6 km/h 3.5 mph /  5.6 km/h 60 % 0.00 in /  0 mm
14:10 71.9 °F /  22.2 °C 57.3 °F /  14.1 °C 30.15 in /  1020.9 hPa NW 3.0 mph /  4.8 km/h 3.0 mph /  4.8 km/h 60 % 0.00 in /  0 mm
14:11 71.9 °F /  22.2 °C 57.7 °F /  14.3 °C 30.15 in /  1020.9 hPa NW 3.5 mph /  5.6 km/h 3.5 mph /  5.6 km/h 61 % 0.00 in /  0 mm
14:16 71.6 °F /  22 °C 57.4 °F /  14.1 °C 30.15 in /  1020.9 hPa NW 4.0 mph /  6.4 km/h 4.0 mph /  6.4 km/h 61 % 0.00 in /  0 mm
14:19 71.5 °F /  21.9 °C 57.8 °F /  14.3 °C 30.15 in /  1020.9 hPa NW 1.2 mph /  1.9 km/h 1.2 mph /  1.9 km/h 62 % 0.00 in /  0 mm
14:24 71.7 °F /  22.1 °C 58.0 °F /  14.4 °C 30.15 in /  1020.9 hPa NW 2.3 mph /  3.7 km/h 2.3 mph /  3.7 km/h 62 % 0.00 in /  0 mm
14:26 71.7 °F /  22.1 °C 57.5 °F /  14.2 °C 30.15 in /  1020.9 hPa ENE 1.2 mph /  1.9 km/h   61 % 0.00 in /  0 mm
14:31 71.7 °F /  22.1 °C 58.0 °F /  14.4 °C 30.15 in /  1020.9 hPa WNW 3.5 mph /  5.6 km/h 3.5 mph /  5.6 km/h 62 % 0.00 in /  0 mm
14:33 71.7 °F /  22.1 °C 58.0 °F /  14.4 °C 30.15 in /  1020.9 hPa West 2.3 mph /  3.7 km/h 2.3 mph /  3.7 km/h 62 % 0.00 in /  0 mm
14:38 71.7 °F /  22.1 °C 58.0 °F /  14.4 °C 30.15 in /  1020.9 hPa WNW 1.2 mph /  1.9 km/h 1.2 mph /  1.9 km/h 62 % 0.00 in /  0 mm
14:44 71.6 °F /  22 °C 57.9 °F /  14.4 °C 30.15 in /  1020.9 hPa NW 3.0 mph /  4.8 km/h 3.0 mph /  4.8 km/h 62 % 0.00 in /  0 mm
14:45 71.6 °F /  22 °C 57.9 °F /  14.4 °C 30.15 in /  1020.9 hPa NW 3.5 mph /  5.6 km/h 3.5 mph /  5.6 km/h 62 % 0.00 in /  0 mm
14:50 71.6 °F /  22 °C 57.9 °F /  14.4 °C 30.14 in /  1020.5 hPa NNW 2.3 mph /  3.7 km/h 2.3 mph /  3.7 km/h 62 % 0.00 in /  0 mm
14:53 71.5 °F /  21.9 °C 57.8 °F /  14.3 °C 30.15 in /  1020.9 hPa NW 1.2 mph /  1.9 km/h 1.2 mph /  1.9 km/h 62 % 0.00 in /  0 mm
15:03 71.4 °F /  21.9 °C 58.1 °F /  14.5 °C 30.15 in /  1020.9 hPa NW 1.2 mph /  1.9 km/h 1.2 mph /  1.9 km/h 63 % 0.00 in /  0 mm
15:04 71.4 °F /  21.9 °C 58.1 °F /  14.5 °C 30.15 in /  1020.9 hPa NW 2.0 mph /  3.2 km/h 2.0 mph /  3.2 km/h 63 % 0.00 in /  0 mm
15:05 71.4 °F /  21.9 °C 58.1 °F /  14.5 °C 30.15 in /  1020.9 hPa NW 2.3 mph /  3.7 km/h 2.3 mph /  3.7 km/h 63 % 0.00 in /  0 mm
15:10 71.3 °F /  21.8 °C 58.1 °F /  14.5 °C 30.15 in /  1020.9 hPa WNW 1.2 mph /  1.9 km/h 1.2 mph /  1.9 km/h 63 % 0.00 in /  0 mm
15:11 71.2 °F /  21.8 °C 58.0 °F /  14.4 °C 30.15 in /  1020.9 hPa WSW 2.3 mph /  3.7 km/h 2.3 mph /  3.7 km/h 63 % 0.00 in /  0 mm
15:15 71.1 °F /  21.7 °C 57.9 °F /  14.4 °C 30.15 in /  1020.9 hPa NW 1.2 mph /  1.9 km/h 1.2 mph /  1.9 km/h 63 % 0.00 in /  0 mm
15:21 71.0 °F /  21.7 °C 57.8 °F /  14.3 °C 30.15 in /  1020.9 hPa West 2.3 mph /  3.7 km/h 2.3 mph /  3.7 km/h 63 % 0.00 in /  0 mm
15:26 70.9 °F /  21.6 °C 57.7 °F /  14.3 °C 30.15 in /  1020.9 hPa NW 1.2 mph /  1.9 km/h 1.2 mph /  1.9 km/h 63 % 0.00 in /  0 mm
15:31 70.6 °F /  21.4 °C 57.8 °F /  14.3 °C 30.15 in /  1020.9 hPa NW 1.2 mph /  1.9 km/h 1.2 mph /  1.9 km/h 64 % 0.00 in /  0 mm
15:33 70.6 °F /  21.4 °C 57.8 °F /  14.3 °C 30.15 in /  1020.9 hPa NW 1.2 mph /  1.9 km/h 1.2 mph /  1.9 km/h 64 % 0.00 in /  0 mm
15:36 70.5 °F /  21.4 °C 57.7 °F /  14.3 °C 30.16 in /  1021.2 hPa WNW 3.5 mph /  5.6 km/h 3.5 mph /  5.6 km/h 64 % 0.00 in /  0 mm
15:41 70.5 °F /  21.4 °C 57.7 °F /  14.3 °C 30.15 in /  1020.9 hPa WNW 1.2 mph /  1.9 km/h 1.2 mph /  1.9 km/h 64 % 0.00 in /  0 mm
15:46 70.4 °F /  21.3 °C 58.1 °F /  14.5 °C 30.16 in /  1021.2 hPa NW 1.2 mph /  1.9 km/h   65 % 0.00 in /  0 mm
15:49 70.4 °F /  21.3 °C 58.1 °F /  14.5 °C 30.16 in /  1021.2 hPa NW 1.0 mph /  1.6 km/h 1.0 mph /  1.6 km/h 65 % 0.00 in /  0 mm
15:54 70.4 °F /  21.3 °C 58.1 °F /  14.5 °C 30.16 in /  1021.2 hPa NW 2.3 mph /  3.7 km/h 2.3 mph /  3.7 km/h 65 % 0.00 in /  0 mm
15:56 70.5 °F /  21.4 °C 57.7 °F /  14.3 °C 30.15 in /  1020.9 hPa NW 3.5 mph /  5.6 km/h 3.5 mph /  5.6 km/h 64 % 0.00 in /  0 mm
16:01 70.3 °F /  21.3 °C 58.0 °F /  14.4 °C 30.16 in /  1021.2 hPa Calm     65 % 0.00 in /  0 mm
16:06 70.0 °F /  21.1 °C 57.7 °F /  14.3 °C 30.16 in /  1021.2 hPa WNW 1.2 mph /  1.9 km/h 1.2 mph /  1.9 km/h 65 % 0.00 in /  0 mm
16:08 69.9 °F /  21.1 °C 58.0 °F /  14.4 °C 30.16 in /  1021.2 hPa Calm     66 % 0.00 in /  0 mm
16:13 69.6 °F /  20.9 °C 57.7 °F /  14.3 °C 30.16 in /  1021.2 hPa NW 1.2 mph /  1.9 km/h 1.2 mph /  1.9 km/h 66 % 0.00 in /  0 mm
16:14 69.6 °F /  20.9 °C 57.7 °F /  14.3 °C 30.16 in /  1021.2 hPa NW 1.2 mph /  1.9 km/h   66 % 0.00 in /  0 mm
16:19 69.2 °F /  20.7 °C 57.4 °F /  14.1 °C 30.16 in /  1021.2 hPa Calm     66 % 0.00 in /  0 mm
16:20 69.1 °F /  20.6 °C 57.7 °F /  14.3 °C 30.16 in /  1021.2 hPa Calm     67 % 0.00 in /  0 mm
16:25 68.7 °F /  20.4 °C 57.3 °F /  14.1 °C 30.16 in /  1021.2 hPa Calm     67 % 0.00 in /  0 mm
16:26 68.7 °F /  20.4 °C 57.3 °F /  14.1 °C 30.16 in /  1021.2 hPa Calm     67 % 0.00 in /  0 mm
16:31 68.2 °F /  20.1 °C 57.2 °F /  14 °C 30.16 in /  1021.2 hPa Calm     68 % 0.00 in /  0 mm
16:36 67.9 °F /  19.9 °C 57.4 °F /  14.1 °C 30.16 in /  1021.2 hPa Calm     69 % 0.00 in /  0 mm
16:41 67.6 °F /  19.8 °C 57.1 °F /  13.9 °C 30.16 in /  1021.2 hPa Calm     69 % 0.00 in /  0 mm
16:43 67.5 °F /  19.7 °C 57.0 °F /  13.9 °C 30.16 in /  1021.2 hPa Calm     69 % 0.00 in /  0 mm
16:48 67.2 °F /  19.6 °C 57.1 °F /  13.9 °C 30.16 in /  1021.2 hPa Calm     70 % 0.00 in /  0 mm
16:51 67.1 °F /  19.5 °C 57.0 °F /  13.9 °C 30.16 in /  1021.2 hPa Calm     70 % 0.00 in /  0 mm
16:56 66.8 °F /  19.3 °C 57.1 °F /  13.9 °C 30.16 in /  1021.2 hPa Calm     71 % 0.00 in /  0 mm
16:59 66.6 °F /  19.2 °C 56.9 °F /  13.8 °C 30.16 in /  1021.2 hPa Calm     71 % 0.00 in /  0 mm
17:04 66.2 °F /  19 °C 56.9 °F /  13.8 °C 30.16 in /  1021.2 hPa Calm     72 % 0.00 in /  0 mm
17:08 66.0 °F /  18.9 °C 56.7 °F /  13.7 °C 30.16 in /  1021.2 hPa Calm     72 % 0.00 in /  0 mm
17:13 65.7 °F /  18.7 °C 56.8 °F /  13.8 °C 30.17 in /  1021.6 hPa Calm     73 % 0.00 in /  0 mm
17:18 65.4 °F /  18.6 °C 56.5 °F /  13.6 °C 30.16 in /  1021.2 hPa Calm     73 % 0.00 in /  0 mm
17:23 65.1 °F /  18.4 °C 56.6 °F /  13.7 °C 30.16 in /  1021.2 hPa Calm     74 % 0.00 in /  0 mm
17:26 64.9 °F /  18.3 °C 56.8 °F /  13.8 °C 30.16 in /  1021.2 hPa Calm     75 % 0.00 in /  0 mm
17:32 64.6 °F /  18.1 °C 56.5 °F /  13.6 °C 30.16 in /  1021.2 hPa Calm     75 % 0.00 in /  0 mm
17:38 64.4 °F /  18 °C 56.3 °F /  13.5 °C 30.16 in /  1021.2 hPa Calm     75 % 0.00 in /  0 mm
17:43 64.2 °F /  17.9 °C 56.8 °F /  13.8 °C 30.16 in /  1021.2 hPa Calm     77 % 0.00 in /  0 mm
17:45 64.1 °F /  17.8 °C 57.1 °F /  13.9 °C 30.17 in /  1021.6 hPa Calm     78 % 0.00 in /  0 mm
17:50 63.9 °F /  17.7 °C 56.9 °F /  13.8 °C 30.17 in /  1021.6 hPa Calm     78 % 0.00 in /  0 mm
17:55 63.5 °F /  17.5 °C 56.5 °F /  13.6 °C 30.16 in /  1021.2 hPa Calm     78 % 0.00 in /  0 mm
18:05 63.1 °F /  17.3 °C 56.8 °F /  13.8 °C 30.17 in /  1021.6 hPa Calm     80 % 0.00 in /  0 mm
18:10 62.8 °F /  17.1 °C 56.2 °F /  13.4 °C 30.18 in /  1021.9 hPa Calm     79 % 0.00 in /  0 mm
18:15 62.6 °F /  17 °C 56.3 °F /  13.5 °C 30.17 in /  1021.6 hPa Calm     80 % 0.00 in /  0 mm
18:20 62.6 °F /  17 °C 56.3 °F /  13.5 °C 30.17 in /  1021.6 hPa Calm     80 % 0.00 in /  0 mm
18:25 62.4 °F /  16.9 °C 56.1 °F /  13.4 °C 30.17 in /  1021.6 hPa Calm     80 % 0.00 in /  0 mm
18:30 62.3 °F /  16.8 °C 56.4 °F /  13.6 °C 30.17 in /  1021.6 hPa Calm     81 % 0.00 in /  0 mm
18:35 62.1 °F /  16.7 °C 56.2 °F /  13.4 °C 30.17 in /  1021.6 hPa Calm     81 % 0.00 in /  0 mm
18:40 61.8 °F /  16.6 °C 56.2 °F /  13.4 °C 30.17 in /  1021.6 hPa Calm     82 % 0.00 in /  0 mm
18:44 62.0 °F /  16.7 °C 56.1 °F /  13.4 °C 30.17 in /  1021.6 hPa Calm     81 % 0.00 in /  0 mm
18:49 62.5 °F /  16.9 °C 56.2 °F /  13.4 °C 30.17 in /  1021.6 hPa Calm     80 % 0.00 in /  0 mm
18:54 62.7 °F /  17.1 °C 56.1 °F /  13.4 °C 30.17 in /  1021.6 hPa Calm     79 % 0.00 in /  0 mm
18:59 62.5 °F /  16.9 °C 55.9 °F /  13.3 °C 30.16 in /  1021.2 hPa Calm     79 % 0.00 in /  0 mm
19:04 62.1 °F /  16.7 °C 55.9 °F /  13.3 °C 30.16 in /  1021.2 hPa Calm     80 % 0.00 in /  0 mm
19:09 62.0 °F /  16.7 °C 55.8 °F /  13.2 °C 30.16 in /  1021.2 hPa Calm     80 % 0.00 in /  0 mm
19:14 61.8 °F /  16.6 °C 55.6 °F /  13.1 °C 30.15 in /  1020.9 hPa Calm     80 % 0.00 in /  0 mm
19:19 61.6 °F /  16.4 °C 55.7 °F /  13.2 °C 30.14 in /  1020.5 hPa Calm     81 % 0.00 in /  0 mm
19:25 61.6 °F /  16.4 °C 55.7 °F /  13.2 °C 30.14 in /  1020.5 hPa Calm     81 % 0.00 in /  0 mm
19:30 61.7 °F /  16.5 °C 55.8 °F /  13.2 °C 30.14 in /  1020.5 hPa Calm     81 % 0.00 in /  0 mm
19:32 61.9 °F /  16.6 °C 56.0 °F /  13.3 °C 30.14 in /  1020.5 hPa Calm     81 % 0.00 in /  0 mm
19:37 62.8 °F /  17.1 °C 56.2 °F /  13.4 °C 30.14 in /  1020.5 hPa Calm   0.1 mph /  0.2 km/h 79 % 0.00 in /  0 mm
19:42 63.3 °F /  17.4 °C 56.3 °F /  13.5 °C 30.14 in /  1020.5 hPa Calm   0.1 mph /  0.2 km/h 78 % 0.00 in /  0 mm
19:47 63.5 °F /  17.5 °C 56.2 °F /  13.4 °C 30.14 in /  1020.5 hPa Calm     77 % 0.00 in /  0 mm
19:52 63.3 °F /  17.4 °C 56.0 °F /  13.3 °C 30.14 in /  1020.5 hPa Calm     77 % 0.00 in /  0 mm
19:56 62.7 °F /  17.1 °C 55.7 °F /  13.2 °C 30.14 in /  1020.5 hPa Calm     78 % 0.00 in /  0 mm
20:01 62.1 °F /  16.7 °C 55.9 °F /  13.3 °C 30.14 in /  1020.5 hPa WNW 1.2 mph /  1.9 km/h   80 % 0.00 in /  0 mm
20:03 61.9 °F /  16.6 °C 55.7 °F /  13.2 °C 30.14 in /  1020.5 hPa WNW 1.2 mph /  1.9 km/h   80 % 0.00 in /  0 mm
20:09 61.5 °F /  16.4 °C 55.6 °F /  13.1 °C 30.14 in /  1020.5 hPa Calm     81 % 0.00 in /  0 mm
20:12 61.3 °F /  16.3 °C 55.4 °F /  13 °C 30.14 in /  1020.5 hPa Calm     81 % 0.00 in /  0 mm
20:17 60.9 °F /  16.1 °C 55.4 °F /  13 °C 30.14 in /  1020.5 hPa Calm     82 % 0.00 in /  0 mm
20:22 60.6 °F /  15.9 °C 55.4 °F /  13 °C 30.14 in /  1020.5 hPa Calm     83 % 0.00 in /  0 mm
20:27 60.2 °F /  15.7 °C 55.3 °F /  12.9 °C 30.14 in /  1020.5 hPa Calm     84 % 0.00 in /  0 mm
20:32 60.0 °F /  15.6 °C 55.2 °F /  12.9 °C 30.14 in /  1020.5 hPa Calm     84 % 0.00 in /  0 mm
20:38 59.7 °F /  15.4 °C 54.9 °F /  12.7 °C 30.15 in /  1020.9 hPa Calm     84 % 0.00 in /  0 mm
20:43 59.6 °F /  15.3 °C 55.1 °F /  12.8 °C 30.15 in /  1020.9 hPa Calm     85 % 0.00 in /  0 mm
20:48 59.5 °F /  15.3 °C 55.0 °F /  12.8 °C 30.15 in /  1020.9 hPa Calm     85 % 0.00 in /  0 mm
20:51 59.5 °F /  15.3 °C 55.0 °F /  12.8 °C 30.15 in /  1020.9 hPa Calm     85 % 0.00 in /  0 mm
20:56 59.7 °F /  15.4 °C 55.2 °F /  12.9 °C 30.15 in /  1020.9 hPa Calm     85 % 0.00 in /  0 mm
21:01 59.7 °F /  15.4 °C 55.2 °F /  12.9 °C 30.16 in /  1021.2 hPa Calm     85 % 0.00 in /  0 mm
21:03 59.7 °F /  15.4 °C 55.2 °F /  12.9 °C 30.16 in /  1021.2 hPa Calm     85 % 0.00 in /  0 mm
21:04 59.7 °F /  15.4 °C 55.2 °F /  12.9 °C 30.16 in /  1021.2 hPa Calm     85 % 0.00 in /  0 mm
21:09 59.6 °F /  15.3 °C 54.8 °F /  12.7 °C 30.16 in /  1021.2 hPa Calm     84 % 0.00 in /  0 mm
21:14 59.6 °F /  15.3 °C 55.1 °F /  12.8 °C 30.16 in /  1021.2 hPa Calm     85 % 0.00 in /  0 mm
21:15 59.6 °F /  15.3 °C 55.1 °F /  12.8 °C 30.16 in /  1021.2 hPa Calm     85 % 0.00 in /  0 mm
21:20 59.8 °F /  15.4 °C 55.3 °F /  12.9 °C 30.17 in /  1021.6 hPa Calm     85 % 0.00 in /  0 mm
21:25 59.8 °F /  15.4 °C 55.0 °F /  12.8 °C 30.17 in /  1021.6 hPa Calm     84 % 0.00 in /  0 mm
21:33 59.2 °F /  15.1 °C 54.7 °F /  12.6 °C 30.18 in /  1021.9 hPa Calm     85 % 0.00 in /  0 mm
21:38 59.0 °F /  15 °C 54.8 °F /  12.7 °C 30.19 in /  1022.2 hPa Calm     86 % 0.00 in /  0 mm
21:41 58.9 °F /  14.9 °C 54.7 °F /  12.6 °C 30.19 in /  1022.2 hPa SE 1.2 mph /  1.9 km/h   86 % 0.00 in /  0 mm
21:46 58.7 °F /  14.8 °C 54.8 °F /  12.7 °C 30.19 in /  1022.2 hPa Calm     87 % 0.00 in /  0 mm
21:51 58.5 °F /  14.7 °C 54.6 °F /  12.6 °C 30.19 in /  1022.2 hPa Calm     87 % 0.00 in /  0 mm
21:56 58.2 °F /  14.6 °C 54.3 °F /  12.4 °C 30.20 in /  1022.6 hPa Calm     87 % 0.00 in /  0 mm
22:01 58.1 °F /  14.5 °C 54.6 °F /  12.6 °C 30.20 in /  1022.6 hPa SE 1.2 mph /  1.9 km/h 1.2 mph /  1.9 km/h 88 % 0.00 in /  0 mm
22:04 58.1 °F /  14.5 °C 54.6 °F /  12.6 °C 30.20 in /  1022.6 hPa SE 1.2 mph /  1.9 km/h 1.2 mph /  1.9 km/h 88 % 0.00 in /  0 mm
22:09 58.2 °F /  14.6 °C 54.7 °F /  12.6 °C 30.20 in /  1022.6 hPa Calm     88 % 0.00 in /  0 mm
22:12 58.2 °F /  14.6 °C 54.7 °F /  12.6 °C 30.20 in /  1022.6 hPa Calm     88 % 0.00 in /  0 mm
22:18 58.1 °F /  14.5 °C 54.6 °F /  12.6 °C 30.20 in /  1022.6 hPa Calm     88 % 0.00 in /  0 mm
22:22 58.0 °F /  14.4 °C 54.5 °F /  12.5 °C 30.20 in /  1022.6 hPa Calm     88 % 0.00 in /  0 mm
22:28 58.0 °F /  14.4 °C 54.8 °F /  12.7 °C 30.20 in /  1022.6 hPa Calm     89 % 0.00 in /  0 mm
22:31 57.9 °F /  14.4 °C 54.7 °F /  12.6 °C 30.20 in /  1022.6 hPa Calm     89 % 0.00 in /  0 mm
22:36 57.9 °F /  14.4 °C 54.7 °F /  12.6 °C 30.20 in /  1022.6 hPa Calm     89 % 0.00 in /  0 mm
22:38 57.9 °F /  14.4 °C 54.7 °F /  12.6 °C 30.20 in /  1022.6 hPa Calm     89 % 0.00 in /  0 mm
22:41 57.8 °F /  14.3 °C 54.6 °F /  12.6 °C 30.20 in /  1022.6 hPa Calm     89 % 0.00 in /  0 mm
22:46 57.7 °F /  14.3 °C 54.5 °F /  12.5 °C 30.20 in /  1022.6 hPa Calm     89 % 0.00 in /  0 mm
22:48 57.7 °F /  14.3 °C 54.5 °F /  12.5 °C 30.20 in /  1022.6 hPa Calm     89 % 0.00 in /  0 mm
22:53 57.8 °F /  14.3 °C 54.6 °F /  12.6 °C 30.20 in /  1022.6 hPa Calm     89 % 0.00 in /  0 mm
22:58 57.8 °F /  14.3 °C 54.6 °F /  12.6 °C 30.20 in /  1022.6 hPa Calm     89 % 0.00 in /  0 mm
23:03 57.8 °F /  14.3 °C 54.6 °F /  12.6 °C 30.20 in /  1022.6 hPa Calm     89 % 0.00 in /  0 mm
23:05 57.7 °F /  14.3 °C 54.5 °F /  12.5 °C 30.20 in /  1022.6 hPa Calm     89 % 0.00 in /  0 mm
23:10 57.6 °F /  14.2 °C 54.4 °F /  12.4 °C 30.20 in /  1022.6 hPa Calm     89 % 0.00 in /  0 mm
23:15 57.6 °F /  14.2 °C 54.4 °F /  12.4 °C 30.20 in /  1022.6 hPa Calm     89 % 0.00 in /  0 mm
23:20 57.6 °F /  14.2 °C 54.4 °F /  12.4 °C 30.20 in /  1022.6 hPa Calm     89 % 0.00 in /  0 mm
23:25 57.5 °F /  14.2 °C 54.3 °F /  12.4 °C 30.20 in /  1022.6 hPa Calm     89 % 0.00 in /  0 mm
23:26 57.5 °F /  14.2 °C 54.3 °F /  12.4 °C 30.20 in /  1022.6 hPa Calm     89 % 0.00 in /  0 mm
23:32 57.6 °F /  14.2 °C 54.4 °F /  12.4 °C 30.19 in /  1022.2 hPa Calm     89 % 0.00 in /  0 mm
23:37 57.7 °F /  14.3 °C 54.5 °F /  12.5 °C 30.19 in /  1022.2 hPa Calm     89 % 0.00 in /  0 mm
23:42 57.7 °F /  14.3 °C 54.5 °F /  12.5 °C 30.19 in /  1022.2 hPa Calm     89 % 0.00 in /  0 mm
23:47 57.8 °F /  14.3 °C 54.6 °F /  12.6 °C 30.19 in /  1022.2 hPa Calm     89 % 0.00 in /  0 mm
23:49 57.9 °F /  14.4 °C 54.4 °F /  12.4 °C 30.19 in /  1022.2 hPa Calm     88 % 0.00 in /  0 mm
23:54 58.3 °F /  14.6 °C 54.8 °F /  12.7 °C 30.19 in /  1022.2 hPa Calm     88 % 0.00 in /  0 mm
23:59 58.5 °F /  14.7 °C 54.6 °F /  12.6 °C 30.18 in /  1021.9 hPa Calm     87 % 0.00 in /  0 mm
Park Place, Exeter, Tulare County, California, USA
Compliments of Weather Underground - 3 mb